sensor_id;sensor_type;location;lat;lon;timestamp;P1;durP1;ratioP1;P2;durP2;ratioP2
1004;SDS011;491;53.480;10.174;2023-07-16T00:00:14;2.00;;;0.83;;
1004;SDS011;491;53.480;10.174;2023-07-16T00:02:43;1.70;;;0.40;;
1004;SDS011;491;53.480;10.174;2023-07-16T00:05:12;4.03;;;0.60;;
1004;SDS011;491;53.480;10.174;2023-07-16T00:07:37;2.43;;;0.30;;
1004;SDS011;491;53.480;10.174;2023-07-16T00:10:04;1.50;;;1.07;;
1004;SDS011;491;53.480;10.174;2023-07-16T00:12:30;1.97;;;0.40;;
1004;SDS011;491;53.480;10.174;2023-07-16T00:14:55;1.20;;;0.47;;
1004;SDS011;491;53.480;10.174;2023-07-16T00:17:22;1.80;;;0.50;;
1004;SDS011;491;53.480;10.174;2023-07-16T00:19:48;2.00;;;0.33;;
1004;SDS011;491;53.480;10.174;2023-07-16T00:22:14;1.53;;;0.60;;
1004;SDS011;491;53.480;10.174;2023-07-16T00:24:39;1.70;;;0.40;;
1004;SDS011;491;53.480;10.174;2023-07-16T00:27:05;2.50;;;0.20;;
1004;SDS011;491;53.480;10.174;2023-07-16T00:29:31;2.70;;;0.63;;
1004;SDS011;491;53.480;10.174;2023-07-16T00:31:57;2.13;;;0.53;;
1004;SDS011;491;53.480;10.174;2023-07-16T00:34:23;3.60;;;0.40;;
1004;SDS011;491;53.480;10.174;2023-07-16T00:36:49;2.47;;;0.40;;
1004;SDS011;491;53.480;10.174;2023-07-16T00:39:18;2.27;;;0.60;;
1004;SDS011;491;53.480;10.174;2023-07-16T00:41:44;3.30;;;0.80;;
1004;SDS011;491;53.480;10.174;2023-07-16T00:44:10;1.97;;;0.60;;
1004;SDS011;491;53.480;10.174;2023-07-16T00:46:36;2.80;;;0.73;;
1004;SDS011;491;53.480;10.174;2023-07-16T00:49:01;2.00;;;0.57;;
1004;SDS011;491;53.480;10.174;2023-07-16T00:51:28;1.90;;;0.37;;
1004;SDS011;491;53.480;10.174;2023-07-16T00:53:55;2.17;;;0.57;;
1004;SDS011;491;53.480;10.174;2023-07-16T00:56:21;1.70;;;0.30;;
1004;SDS011;491;53.480;10.174;2023-07-16T00:58:47;1.30;;;0.50;;
1004;SDS011;491;53.480;10.174;2023-07-16T01:01:13;1.90;;;0.30;;
1004;SDS011;491;53.480;10.174;2023-07-16T01:03:39;1.23;;;0.30;;
1004;SDS011;491;53.480;10.174;2023-07-16T01:06:15;4.43;;;0.83;;
1004;SDS011;491;53.480;10.174;2023-07-16T01:09:15;0.97;;;0.33;;
1004;SDS011;491;53.480;10.174;2023-07-16T01:11:34;2.17;;;0.53;;
1004;SDS011;491;53.480;10.174;2023-07-16T01:14:01;3.50;;;0.40;;
1004;SDS011;491;53.480;10.174;2023-07-16T01:16:36;1.60;;;0.60;;
1004;SDS011;491;53.480;10.174;2023-07-16T01:19:02;2.30;;;0.67;;
1004;SDS011;491;53.480;10.174;2023-07-16T01:21:31;1.20;;;0.47;;
1004;SDS011;491;53.480;10.174;2023-07-16T01:24:16;0.83;;;0.40;;
1004;SDS011;491;53.480;10.174;2023-07-16T01:31:54;1.13;;;0.40;;
1004;SDS011;491;53.480;10.174;2023-07-16T01:34:21;3.03;;;0.30;;
1004;SDS011;491;53.480;10.174;2023-07-16T01:36:47;2.03;;;0.47;;
1004;SDS011;491;53.480;10.174;2023-07-16T01:39:14;1.70;;;0.53;;
1004;SDS011;491;53.480;10.174;2023-07-16T01:41:40;1.63;;;0.93;;
1004;SDS011;491;53.480;10.174;2023-07-16T01:44:06;2.23;;;0.37;;
1004;SDS011;491;53.480;10.174;2023-07-16T01:46:32;1.90;;;0.60;;
1004;SDS011;491;53.480;10.174;2023-07-16T01:49:01;2.20;;;0.67;;
1004;SDS011;491;53.480;10.174;2023-07-16T01:51:27;4.10;;;0.67;;
1004;SDS011;491;53.480;10.174;2023-07-16T01:53:53;2.00;;;0.47;;
1004;SDS011;491;53.480;10.174;2023-07-16T01:56:19;4.40;;;0.20;;
1004;SDS011;491;53.480;10.174;2023-07-16T01:58:48;1.37;;;0.50;;
1004;SDS011;491;53.480;10.174;2023-07-16T02:01:14;1.50;;;0.73;;
1004;SDS011;491;53.480;10.174;2023-07-16T02:03:39;1.67;;;0.40;;
1004;SDS011;491;53.480;10.174;2023-07-16T02:06:05;1.60;;;0.40;;
1004;SDS011;491;53.480;10.174;2023-07-16T02:08:31;2.97;;;0.90;;
1004;SDS011;491;53.480;10.174;2023-07-16T02:10:57;1.30;;;0.40;;
1004;SDS011;491;53.480;10.174;2023-07-16T02:13:23;6.00;;;0.53;;
1004;SDS011;491;53.480;10.174;2023-07-16T02:15:49;2.37;;;0.50;;
1004;SDS011;491;53.480;10.174;2023-07-16T02:18:15;1.40;;;0.40;;
1004;SDS011;491;53.480;10.174;2023-07-16T02:20:41;1.20;;;0.40;;
1004;SDS011;491;53.480;10.174;2023-07-16T02:23:07;2.10;;;0.67;;
1004;SDS011;491;53.480;10.174;2023-07-16T02:25:32;1.17;;;0.50;;
1004;SDS011;491;53.480;10.174;2023-07-16T02:27:58;2.13;;;0.37;;
1004;SDS011;491;53.480;10.174;2023-07-16T02:30:24;1.73;;;0.60;;
1004;SDS011;491;53.480;10.174;2023-07-16T02:32:50;2.10;;;0.60;;
1004;SDS011;491;53.480;10.174;2023-07-16T02:35:16;3.27;;;0.90;;
1004;SDS011;491;53.480;10.174;2023-07-16T02:37:42;2.43;;;0.97;;
1004;SDS011;491;53.480;10.174;2023-07-16T02:40:08;1.57;;;0.60;;
1004;SDS011;491;53.480;10.174;2023-07-16T02:42:34;3.77;;;0.83;;
1004;SDS011;491;53.480;10.174;2023-07-16T02:45:00;2.20;;;0.60;;
1004;SDS011;491;53.480;10.174;2023-07-16T02:47:26;3.07;;;0.70;;
1004;SDS011;491;53.480;10.174;2023-07-16T02:49:52;1.53;;;0.57;;
1004;SDS011;491;53.480;10.174;2023-07-16T02:52:18;6.17;;;0.73;;
1004;SDS011;491;53.480;10.174;2023-07-16T02:54:44;2.40;;;0.60;;
1004;SDS011;491;53.480;10.174;2023-07-16T02:57:10;3.13;;;1.37;;
1004;SDS011;491;53.480;10.174;2023-07-16T02:59:36;2.60;;;0.50;;
1004;SDS011;491;53.480;10.174;2023-07-16T03:02:02;1.27;;;0.63;;
1004;SDS011;491;53.480;10.174;2023-07-16T03:04:28;2.10;;;0.83;;
1004;SDS011;491;53.480;10.174;2023-07-16T03:06:54;2.80;;;0.70;;
1004;SDS011;491;53.480;10.174;2023-07-16T03:09:19;1.13;;;0.40;;
1004;SDS011;491;53.480;10.174;2023-07-16T03:11:45;2.30;;;0.40;;
1004;SDS011;491;53.480;10.174;2023-07-16T03:14:11;2.27;;;0.53;;
1004;SDS011;491;53.480;10.174;2023-07-16T03:16:37;2.17;;;0.60;;
1004;SDS011;491;53.480;10.174;2023-07-16T03:19:03;2.20;;;1.17;;
1004;SDS011;491;53.480;10.174;2023-07-16T03:21:29;2.43;;;0.90;;
1004;SDS011;491;53.480;10.174;2023-07-16T03:23:55;2.73;;;0.70;;
1004;SDS011;491;53.480;10.174;2023-07-16T03:26:21;2.03;;;0.80;;
1004;SDS011;491;53.480;10.174;2023-07-16T03:28:47;0.90;;;0.40;;
1004;SDS011;491;53.480;10.174;2023-07-16T03:31:13;3.33;;;1.00;;
1004;SDS011;491;53.480;10.174;2023-07-16T03:33:38;2.97;;;0.60;;
1004;SDS011;491;53.480;10.174;2023-07-16T03:36:04;5.00;;;1.37;;
1004;SDS011;491;53.480;10.174;2023-07-16T03:38:34;2.17;;;0.60;;
1004;SDS011;491;53.480;10.174;2023-07-16T03:41:00;1.53;;;0.47;;
1004;SDS011;491;53.480;10.174;2023-07-16T03:43:26;3.17;;;0.70;;
1004;SDS011;491;53.480;10.174;2023-07-16T03:45:52;3.37;;;0.60;;
1004;SDS011;491;53.480;10.174;2023-07-16T03:48:17;2.23;;;0.70;;
1004;SDS011;491;53.480;10.174;2023-07-16T03:50:44;2.10;;;0.80;;
1004;SDS011;491;53.480;10.174;2023-07-16T03:53:10;2.30;;;0.93;;
1004;SDS011;491;53.480;10.174;2023-07-16T03:55:35;1.80;;;0.40;;
1004;SDS011;491;53.480;10.174;2023-07-16T03:58:01;2.83;;;0.57;;
1004;SDS011;491;53.480;10.174;2023-07-16T04:00:27;3.93;;;1.07;;
1004;SDS011;491;53.480;10.174;2023-07-16T04:02:57;1.30;;;0.60;;
1004;SDS011;491;53.480;10.174;2023-07-16T04:05:22;3.08;;;0.63;;
1004;SDS011;491;53.480;10.174;2023-07-16T04:07:48;2.07;;;0.90;;
1004;SDS011;491;53.480;10.174;2023-07-16T04:10:14;1.63;;;0.57;;
1004;SDS011;491;53.480;10.174;2023-07-16T04:12:40;2.53;;;0.67;;
1004;SDS011;491;53.480;10.174;2023-07-16T04:15:07;1.47;;;0.70;;
1004;SDS011;491;53.480;10.174;2023-07-16T04:17:34;1.30;;;0.30;;
1004;SDS011;491;53.480;10.174;2023-07-16T04:20:00;1.30;;;0.70;;
1004;SDS011;491;53.480;10.174;2023-07-16T04:22:26;1.50;;;0.50;;
1004;SDS011;491;53.480;10.174;2023-07-16T04:24:52;4.93;;;0.90;;
1004;SDS011;491;53.480;10.174;2023-07-16T04:27:18;1.40;;;0.50;;
1004;SDS011;491;53.480;10.174;2023-07-16T04:29:43;2.17;;;0.80;;
1004;SDS011;491;53.480;10.174;2023-07-16T04:32:09;1.90;;;0.60;;
1004;SDS011;491;53.480;10.174;2023-07-16T04:34:35;2.80;;;0.80;;
1004;SDS011;491;53.480;10.174;2023-07-16T04:37:01;2.33;;;0.50;;
1004;SDS011;491;53.480;10.174;2023-07-16T04:39:30;3.37;;;0.70;;
1004;SDS011;491;53.480;10.174;2023-07-16T04:41:56;2.43;;;0.80;;
1004;SDS011;491;53.480;10.174;2023-07-16T04:44:22;3.40;;;0.83;;
1004;SDS011;491;53.480;10.174;2023-07-16T04:46:48;3.23;;;0.70;;
1004;SDS011;491;53.480;10.174;2023-07-16T04:49:14;2.47;;;0.60;;
1004;SDS011;491;53.480;10.174;2023-07-16T04:51:39;2.23;;;0.57;;
1004;SDS011;491;53.480;10.174;2023-07-16T04:54:05;1.87;;;0.93;;
1004;SDS011;491;53.480;10.174;2023-07-16T04:56:31;3.20;;;0.67;;
1004;SDS011;491;53.480;10.174;2023-07-16T04:59:00;2.00;;;0.70;;
1004;SDS011;491;53.480;10.174;2023-07-16T05:01:26;2.40;;;0.67;;
1004;SDS011;491;53.480;10.174;2023-07-16T05:03:52;2.23;;;0.60;;
1004;SDS011;491;53.480;10.174;2023-07-16T05:06:18;3.10;;;0.70;;
1004;SDS011;491;53.480;10.174;2023-07-16T05:08:44;1.87;;;0.50;;
1004;SDS011;491;53.480;10.174;2023-07-16T05:11:10;5.63;;;0.90;;
1004;SDS011;491;53.480;10.174;2023-07-16T05:13:35;2.00;;;0.77;;
1004;SDS011;491;53.480;10.174;2023-07-16T05:16:01;1.30;;;0.33;;
1004;SDS011;491;53.480;10.174;2023-07-16T05:18:27;2.77;;;0.43;;
1004;SDS011;491;53.480;10.174;2023-07-16T05:20:53;4.77;;;0.90;;
1004;SDS011;491;53.480;10.174;2023-07-16T05:23:19;2.97;;;0.87;;
1004;SDS011;491;53.480;10.174;2023-07-16T05:25:46;2.60;;;0.50;;
1004;SDS011;491;53.480;10.174;2023-07-16T05:28:12;2.60;;;0.60;;
1004;SDS011;491;53.480;10.174;2023-07-16T05:30:38;3.57;;;1.00;;
1004;SDS011;491;53.480;10.174;2023-07-16T05:33:04;2.73;;;0.80;;
1004;SDS011;491;53.480;10.174;2023-07-16T05:35:30;3.83;;;0.83;;
1004;SDS011;491;53.480;10.174;2023-07-16T05:37:56;1.40;;;0.53;;
1004;SDS011;491;53.480;10.174;2023-07-16T05:40:22;2.20;;;0.63;;
1004;SDS011;491;53.480;10.174;2023-07-16T05:42:48;3.37;;;0.90;;
1004;SDS011;491;53.480;10.174;2023-07-16T05:45:14;3.00;;;1.30;;
1004;SDS011;491;53.480;10.174;2023-07-16T05:47:39;3.33;;;0.77;;
1004;SDS011;491;53.480;10.174;2023-07-16T05:50:06;3.47;;;1.00;;
1004;SDS011;491;53.480;10.174;2023-07-16T05:52:32;2.03;;;0.60;;
1004;SDS011;491;53.480;10.174;2023-07-16T05:54:58;2.00;;;0.40;;
1004;SDS011;491;53.480;10.174;2023-07-16T05:57:23;2.17;;;0.87;;
1004;SDS011;491;53.480;10.174;2023-07-16T05:59:49;2.87;;;0.70;;
1004;SDS011;491;53.480;10.174;2023-07-16T06:02:15;3.10;;;0.73;;
1004;SDS011;491;53.480;10.174;2023-07-16T06:04:41;2.30;;;0.90;;
1004;SDS011;491;53.480;10.174;2023-07-16T06:07:07;3.10;;;0.60;;
1004;SDS011;491;53.480;10.174;2023-07-16T06:09:33;3.50;;;0.80;;
1004;SDS011;491;53.480;10.174;2023-07-16T06:11:59;2.10;;;0.53;;
1004;SDS011;491;53.480;10.174;2023-07-16T06:14:25;2.27;;;0.70;;
1004;SDS011;491;53.480;10.174;2023-07-16T06:16:51;1.30;;;0.90;;
1004;SDS011;491;53.480;10.174;2023-07-16T06:19:17;2.83;;;0.93;;
1004;SDS011;491;53.480;10.174;2023-07-16T06:21:43;4.57;;;0.93;;
1004;SDS011;491;53.480;10.174;2023-07-16T06:24:09;9.80;;;1.03;;
1004;SDS011;491;53.480;10.174;2023-07-16T06:26:35;4.13;;;0.77;;
1004;SDS011;491;53.480;10.174;2023-07-16T06:29:01;2.70;;;0.80;;
1004;SDS011;491;53.480;10.174;2023-07-16T06:31:27;2.40;;;0.73;;
1004;SDS011;491;53.480;10.174;2023-07-16T06:33:53;4.00;;;0.90;;
1004;SDS011;491;53.480;10.174;2023-07-16T06:36:19;1.93;;;1.40;;
1004;SDS011;491;53.480;10.174;2023-07-16T06:38:45;3.57;;;0.63;;
1004;SDS011;491;53.480;10.174;2023-07-16T06:41:14;2.20;;;0.93;;
1004;SDS011;491;53.480;10.174;2023-07-16T06:43:40;2.23;;;0.87;;
1004;SDS011;491;53.480;10.174;2023-07-16T06:46:06;2.63;;;0.93;;
1004;SDS011;491;53.480;10.174;2023-07-16T06:48:32;3.50;;;1.23;;
1004;SDS011;491;53.480;10.174;2023-07-16T06:50:59;2.80;;;1.00;;
1004;SDS011;491;53.480;10.174;2023-07-16T06:53:25;2.80;;;1.03;;
1004;SDS011;491;53.480;10.174;2023-07-16T06:55:51;6.33;;;0.80;;
1004;SDS011;491;53.480;10.174;2023-07-16T06:58:17;3.67;;;0.30;;
1004;SDS011;491;53.480;10.174;2023-07-16T07:00:43;2.87;;;0.80;;
1004;SDS011;491;53.480;10.174;2023-07-16T07:03:09;2.30;;;0.60;;
1004;SDS011;491;53.480;10.174;2023-07-16T07:05:35;4.80;;;1.10;;
1004;SDS011;491;53.480;10.174;2023-07-16T07:08:01;3.00;;;0.53;;
1004;SDS011;491;53.480;10.174;2023-07-16T07:10:27;3.67;;;1.00;;
1004;SDS011;491;53.480;10.174;2023-07-16T07:12:53;2.73;;;0.57;;
1004;SDS011;491;53.480;10.174;2023-07-16T07:15:19;3.30;;;1.20;;
1004;SDS011;491;53.480;10.174;2023-07-16T07:17:45;3.17;;;0.90;;
1004;SDS011;491;53.480;10.174;2023-07-16T07:20:12;2.87;;;1.00;;
1004;SDS011;491;53.480;10.174;2023-07-16T07:22:38;3.57;;;0.70;;
1004;SDS011;491;53.480;10.174;2023-07-16T07:25:04;3.37;;;1.30;;
1004;SDS011;491;53.480;10.174;2023-07-16T07:27:30;6.10;;;1.90;;
1004;SDS011;491;53.480;10.174;2023-07-16T07:29:56;4.20;;;1.20;;
1004;SDS011;491;53.480;10.174;2023-07-16T07:32:22;6.40;;;1.27;;
1004;SDS011;491;53.480;10.174;2023-07-16T07:34:48;6.00;;;1.53;;
1004;SDS011;491;53.480;10.174;2023-07-16T07:37:14;3.63;;;1.30;;
1004;SDS011;491;53.480;10.174;2023-07-16T07:39:40;2.53;;;1.03;;
1004;SDS011;491;53.480;10.174;2023-07-16T07:42:06;1.53;;;0.60;;
1004;SDS011;491;53.480;10.174;2023-07-16T07:44:32;2.57;;;0.80;;
1004;SDS011;491;53.480;10.174;2023-07-16T07:46:58;2.70;;;0.90;;
1004;SDS011;491;53.480;10.174;2023-07-16T07:49:24;3.27;;;1.10;;
1004;SDS011;491;53.480;10.174;2023-07-16T07:51:50;4.67;;;1.20;;
1004;SDS011;491;53.480;10.174;2023-07-16T07:54:16;3.87;;;1.07;;
1004;SDS011;491;53.480;10.174;2023-07-16T07:56:42;2.43;;;0.83;;
1004;SDS011;491;53.480;10.174;2023-07-16T07:59:08;3.70;;;1.17;;
1004;SDS011;491;53.480;10.174;2023-07-16T08:01:34;2.83;;;0.90;;
1004;SDS011;491;53.480;10.174;2023-07-16T08:04:01;2.83;;;0.80;;
1004;SDS011;491;53.480;10.174;2023-07-16T08:06:26;5.00;;;1.13;;
1004;SDS011;491;53.480;10.174;2023-07-16T08:08:52;2.73;;;0.57;;
1004;SDS011;491;53.480;10.174;2023-07-16T08:11:18;4.10;;;1.10;;
1004;SDS011;491;53.480;10.174;2023-07-16T08:13:44;2.43;;;0.90;;
1004;SDS011;491;53.480;10.174;2023-07-16T08:16:10;5.50;;;1.90;;
1004;SDS011;491;53.480;10.174;2023-07-16T08:18:36;3.33;;;1.30;;
1004;SDS011;491;53.480;10.174;2023-07-16T08:21:02;5.97;;;1.53;;
1004;SDS011;491;53.480;10.174;2023-07-16T08:23:28;4.40;;;0.97;;
1004;SDS011;491;53.480;10.174;2023-07-16T08:25:54;2.30;;;0.90;;
1004;SDS011;491;53.480;10.174;2023-07-16T08:28:19;2.37;;;0.80;;
1004;SDS011;491;53.480;10.174;2023-07-16T08:30:46;3.10;;;1.17;;
1004;SDS011;491;53.480;10.174;2023-07-16T08:33:12;2.30;;;0.70;;
1004;SDS011;491;53.480;10.174;2023-07-16T08:35:39;4.83;;;0.83;;
1004;SDS011;491;53.480;10.174;2023-07-16T08:38:05;2.20;;;0.80;;
1004;SDS011;491;53.480;10.174;2023-07-16T08:40:34;3.57;;;1.30;;
1004;SDS011;491;53.480;10.174;2023-07-16T08:43:00;3.73;;;1.80;;
1004;SDS011;491;53.480;10.174;2023-07-16T08:45:27;3.60;;;1.03;;
1004;SDS011;491;53.480;10.174;2023-07-16T08:47:54;2.67;;;0.90;;
1004;SDS011;491;53.480;10.174;2023-07-16T08:50:20;4.53;;;1.20;;
1004;SDS011;491;53.480;10.174;2023-07-16T08:52:47;3.33;;;1.37;;
1004;SDS011;491;53.480;10.174;2023-07-16T08:55:13;3.80;;;1.10;;
1004;SDS011;491;53.480;10.174;2023-07-16T08:57:39;3.80;;;1.10;;
1004;SDS011;491;53.480;10.174;2023-07-16T09:00:06;4.37;;;1.90;;
1004;SDS011;491;53.480;10.174;2023-07-16T09:02:32;3.67;;;1.90;;
1004;SDS011;491;53.480;10.174;2023-07-16T09:04:58;2.30;;;1.50;;
1004;SDS011;491;53.480;10.174;2023-07-16T09:07:24;2.57;;;1.10;;
1004;SDS011;491;53.480;10.174;2023-07-16T09:09:56;1.83;;;1.00;;
1004;SDS011;491;53.480;10.174;2023-07-16T09:12:23;5.60;;;1.53;;
1004;SDS011;491;53.480;10.174;2023-07-16T09:14:49;3.10;;;1.43;;
1004;SDS011;491;53.480;10.174;2023-07-16T09:17:19;3.40;;;1.37;;
1004;SDS011;491;53.480;10.174;2023-07-16T09:19:46;3.80;;;1.80;;
1004;SDS011;491;53.480;10.174;2023-07-16T09:22:12;3.77;;;1.67;;
1004;SDS011;491;53.480;10.174;2023-07-16T09:24:38;3.03;;;1.60;;
1004;SDS011;491;53.480;10.174;2023-07-16T09:27:04;2.30;;;1.37;;
1004;SDS011;491;53.480;10.174;2023-07-16T09:29:30;3.87;;;1.63;;
1004;SDS011;491;53.480;10.174;2023-07-16T09:31:57;2.37;;;1.77;;
1004;SDS011;491;53.480;10.174;2023-07-16T09:34:23;3.83;;;1.97;;
1004;SDS011;491;53.480;10.174;2023-07-16T09:36:49;5.00;;;2.07;;
1004;SDS011;491;53.480;10.174;2023-07-16T09:39:19;4.27;;;1.57;;
1004;SDS011;491;53.480;10.174;2023-07-16T09:41:48;3.33;;;1.70;;
1004;SDS011;491;53.480;10.174;2023-07-16T09:44:15;3.00;;;1.27;;
1004;SDS011;491;53.480;10.174;2023-07-16T09:46:41;4.33;;;2.10;;
1004;SDS011;491;53.480;10.174;2023-07-16T09:49:07;3.03;;;1.57;;
1004;SDS011;491;53.480;10.174;2023-07-16T09:51:34;3.43;;;1.37;;
1004;SDS011;491;53.480;10.174;2023-07-16T09:54:01;3.60;;;1.57;;
1004;SDS011;491;53.480;10.174;2023-07-16T09:56:28;4.20;;;1.93;;
1004;SDS011;491;53.480;10.174;2023-07-16T09:58:57;3.03;;;1.90;;
1004;SDS011;491;53.480;10.174;2023-07-16T10:01:24;3.63;;;2.40;;
1004;SDS011;491;53.480;10.174;2023-07-16T10:03:50;4.70;;;1.97;;
1004;SDS011;491;53.480;10.174;2023-07-16T10:06:16;4.40;;;2.40;;
1004;SDS011;491;53.480;10.174;2023-07-16T10:08:48;3.40;;;1.87;;
1004;SDS011;491;53.480;10.174;2023-07-16T10:11:17;2.83;;;1.70;;
1004;SDS011;491;53.480;10.174;2023-07-16T10:13:48;4.53;;;1.90;;
1004;SDS011;491;53.480;10.174;2023-07-16T10:16:22;2.63;;;2.27;;
1004;SDS011;491;53.480;10.174;2023-07-16T10:18:51;4.00;;;2.23;;
1004;SDS011;491;53.480;10.174;2023-07-16T10:21:23;5.20;;;2.03;;
1004;SDS011;491;53.480;10.174;2023-07-16T10:23:56;3.47;;;2.00;;
1004;SDS011;491;53.480;10.174;2023-07-16T10:26:27;4.97;;;2.30;;
1004;SDS011;491;53.480;10.174;2023-07-16T10:28:54;4.17;;;2.40;;
1004;SDS011;491;53.480;10.174;2023-07-16T10:31:24;3.67;;;2.37;;
1004;SDS011;491;53.480;10.174;2023-07-16T10:34:00;6.83;;;2.30;;
1004;SDS011;491;53.480;10.174;2023-07-16T10:36:26;3.67;;;2.30;;
1004;SDS011;491;53.480;10.174;2023-07-16T10:39:00;3.63;;;2.30;;
1004;SDS011;491;53.480;10.174;2023-07-16T10:41:27;3.67;;;1.83;;
1004;SDS011;491;53.480;10.174;2023-07-16T10:43:53;2.57;;;2.23;;
1004;SDS011;491;53.480;10.174;2023-07-16T10:46:20;3.43;;;2.03;;
1004;SDS011;491;53.480;10.174;2023-07-16T10:48:46;3.90;;;1.93;;
1004;SDS011;491;53.480;10.174;2023-07-16T10:51:15;3.90;;;1.53;;
1004;SDS011;491;53.480;10.174;2023-07-16T10:53:42;2.67;;;1.27;;
1004;SDS011;491;53.480;10.174;2023-07-16T10:56:08;3.30;;;2.07;;
1004;SDS011;491;53.480;10.174;2023-07-16T10:58:36;4.90;;;2.30;;
1004;SDS011;491;53.480;10.174;2023-07-16T11:01:02;5.40;;;2.70;;
1004;SDS011;491;53.480;10.174;2023-07-16T11:03:30;4.13;;;1.73;;
1004;SDS011;491;53.480;10.174;2023-07-16T11:05:56;6.17;;;2.60;;
1004;SDS011;491;53.480;10.174;2023-07-16T11:08:23;4.47;;;2.00;;
1004;SDS011;491;53.480;10.174;2023-07-16T11:10:53;3.33;;;2.17;;
1004;SDS011;491;53.480;10.174;2023-07-16T11:13:19;3.30;;;2.10;;
1004;SDS011;491;53.480;10.174;2023-07-16T11:15:45;3.90;;;2.00;;
1004;SDS011;491;53.480;10.174;2023-07-16T11:18:11;4.77;;;2.27;;
1004;SDS011;491;53.480;10.174;2023-07-16T11:20:37;2.40;;;1.60;;
1004;SDS011;491;53.480;10.174;2023-07-16T11:23:03;6.13;;;1.87;;
1004;SDS011;491;53.480;10.174;2023-07-16T11:25:29;6.20;;;3.10;;
1004;SDS011;491;53.480;10.174;2023-07-16T11:27:55;2.83;;;1.93;;
1004;SDS011;491;53.480;10.174;2023-07-16T11:30:24;2.43;;;1.40;;
1004;SDS011;491;53.480;10.174;2023-07-16T11:32:52;3.47;;;1.70;;
1004;SDS011;491;53.480;10.174;2023-07-16T11:35:19;4.60;;;1.40;;
1004;SDS011;491;53.480;10.174;2023-07-16T11:37:45;3.33;;;2.00;;
1004;SDS011;491;53.480;10.174;2023-07-16T11:40:15;4.13;;;1.90;;
1004;SDS011;491;53.480;10.174;2023-07-16T11:42:41;3.17;;;1.37;;
1004;SDS011;491;53.480;10.174;2023-07-16T11:45:17;7.03;;;2.20;;
1004;SDS011;491;53.480;10.174;2023-07-16T11:47:44;2.43;;;1.20;;
1004;SDS011;491;53.480;10.174;2023-07-16T11:50:09;3.97;;;2.10;;
1004;SDS011;491;53.480;10.174;2023-07-16T11:52:35;4.90;;;2.50;;
1004;SDS011;491;53.480;10.174;2023-07-16T11:55:01;4.00;;;2.30;;
1004;SDS011;491;53.480;10.174;2023-07-16T11:57:30;3.70;;;2.10;;
1004;SDS011;491;53.480;10.174;2023-07-16T11:59:56;2.77;;;1.70;;
1004;SDS011;491;53.480;10.174;2023-07-16T12:02:22;4.60;;;1.93;;
1004;SDS011;491;53.480;10.174;2023-07-16T12:04:53;6.20;;;1.60;;
1004;SDS011;491;53.480;10.174;2023-07-16T12:07:32;5.43;;;1.83;;
1004;SDS011;491;53.480;10.174;2023-07-16T12:09:58;3.60;;;2.00;;
1004;SDS011;491;53.480;10.174;2023-07-16T12:12:24;4.03;;;2.37;;
1004;SDS011;491;53.480;10.174;2023-07-16T12:14:50;3.40;;;2.00;;
1004;SDS011;491;53.480;10.174;2023-07-16T12:17:15;3.03;;;2.13;;
1004;SDS011;491;53.480;10.174;2023-07-16T12:19:41;5.03;;;1.70;;
1004;SDS011;491;53.480;10.174;2023-07-16T12:22:08;2.60;;;2.00;;
1004;SDS011;491;53.480;10.174;2023-07-16T12:24:34;2.70;;;1.97;;
1004;SDS011;491;53.480;10.174;2023-07-16T12:27:00;2.97;;;2.50;;
1004;SDS011;491;53.480;10.174;2023-07-16T12:29:26;3.93;;;1.50;;
1004;SDS011;491;53.480;10.174;2023-07-16T12:31:52;5.53;;;2.43;;
1004;SDS011;491;53.480;10.174;2023-07-16T12:34:18;4.90;;;2.43;;
1004;SDS011;491;53.480;10.174;2023-07-16T12:36:44;3.43;;;1.83;;
1004;SDS011;491;53.480;10.174;2023-07-16T12:39:10;3.80;;;1.60;;
1004;SDS011;491;53.480;10.174;2023-07-16T12:41:36;4.20;;;1.73;;
1004;SDS011;491;53.480;10.174;2023-07-16T12:44:02;2.97;;;1.40;;
1004;SDS011;491;53.480;10.174;2023-07-16T12:46:28;2.53;;;1.20;;
1004;SDS011;491;53.480;10.174;2023-07-16T12:48:54;3.20;;;1.97;;
1004;SDS011;491;53.480;10.174;2023-07-16T12:51:20;3.27;;;1.77;;
1004;SDS011;491;53.480;10.174;2023-07-16T12:53:46;2.70;;;1.97;;
1004;SDS011;491;53.480;10.174;2023-07-16T12:56:12;5.73;;;1.90;;
1004;SDS011;491;53.480;10.174;2023-07-16T12:58:38;2.70;;;1.33;;
1004;SDS011;491;53.480;10.174;2023-07-16T13:01:04;5.90;;;2.17;;
1004;SDS011;491;53.480;10.174;2023-07-16T13:03:29;3.20;;;1.80;;
1004;SDS011;491;53.480;10.174;2023-07-16T13:05:55;2.30;;;1.57;;
1004;SDS011;491;53.480;10.174;2023-07-16T13:08:21;3.83;;;1.60;;
1004;SDS011;491;53.480;10.174;2023-07-16T13:10:47;2.73;;;2.03;;
1004;SDS011;491;53.480;10.174;2023-07-16T13:13:13;3.93;;;2.10;;
1004;SDS011;491;53.480;10.174;2023-07-16T13:15:39;2.63;;;1.40;;
1004;SDS011;491;53.480;10.174;2023-07-16T13:18:09;1.93;;;1.50;;
1004;SDS011;491;53.480;10.174;2023-07-16T13:20:38;2.97;;;1.90;;
1004;SDS011;491;53.480;10.174;2023-07-16T13:23:04;6.27;;;1.83;;
1004;SDS011;491;53.480;10.174;2023-07-16T13:25:30;3.37;;;1.40;;
1004;SDS011;491;53.480;10.174;2023-07-16T13:27:56;5.53;;;2.07;;
1004;SDS011;491;53.480;10.174;2023-07-16T13:30:22;3.93;;;1.30;;
1004;SDS011;491;53.480;10.174;2023-07-16T13:32:48;3.20;;;1.50;;
1004;SDS011;491;53.480;10.174;2023-07-16T13:35:14;3.40;;;1.13;;
1004;SDS011;491;53.480;10.174;2023-07-16T13:37:41;2.97;;;1.07;;
1004;SDS011;491;53.480;10.174;2023-07-16T13:40:07;3.60;;;1.30;;
1004;SDS011;491;53.480;10.174;2023-07-16T13:42:33;4.13;;;1.13;;
1004;SDS011;491;53.480;10.174;2023-07-16T13:44:59;2.87;;;1.50;;
1004;SDS011;491;53.480;10.174;2023-07-16T13:47:25;8.03;;;1.73;;
1004;SDS011;491;53.480;10.174;2023-07-16T13:49:51;3.20;;;1.40;;
1004;SDS011;491;53.480;10.174;2023-07-16T13:52:17;1.67;;;0.73;;
1004;SDS011;491;53.480;10.174;2023-07-16T13:54:43;1.80;;;0.70;;
1004;SDS011;491;53.480;10.174;2023-07-16T13:57:09;2.20;;;1.27;;
1004;SDS011;491;53.480;10.174;2023-07-16T13:59:35;4.70;;;0.97;;
1004;SDS011;491;53.480;10.174;2023-07-16T14:02:01;4.20;;;1.20;;
1004;SDS011;491;53.480;10.174;2023-07-16T14:04:28;2.00;;;1.20;;
1004;SDS011;491;53.480;10.174;2023-07-16T14:06:54;3.23;;;1.33;;
1004;SDS011;491;53.480;10.174;2023-07-16T14:09:20;3.93;;;1.37;;
1004;SDS011;491;53.480;10.174;2023-07-16T14:11:46;2.43;;;1.00;;
1004;SDS011;491;53.480;10.174;2023-07-16T14:14:16;3.60;;;1.97;;
1004;SDS011;491;53.480;10.174;2023-07-16T14:16:42;3.00;;;1.13;;
1004;SDS011;491;53.480;10.174;2023-07-16T14:19:08;2.67;;;1.13;;
1004;SDS011;491;53.480;10.174;2023-07-16T14:21:34;5.17;;;0.97;;
1004;SDS011;491;53.480;10.174;2023-07-16T14:24:00;2.83;;;1.50;;
1004;SDS011;491;53.480;10.174;2023-07-16T14:26:26;4.10;;;1.33;;
1004;SDS011;491;53.480;10.174;2023-07-16T14:28:52;3.17;;;1.70;;
1004;SDS011;491;53.480;10.174;2023-07-16T14:31:18;2.53;;;1.30;;
1004;SDS011;491;53.480;10.174;2023-07-16T14:33:44;4.87;;;1.77;;
1004;SDS011;491;53.480;10.174;2023-07-16T14:36:10;2.60;;;1.63;;
1004;SDS011;491;53.480;10.174;2023-07-16T14:38:35;6.30;;;2.50;;
1004;SDS011;491;53.480;10.174;2023-07-16T14:41:01;4.57;;;1.47;;
1004;SDS011;491;53.480;10.174;2023-07-16T14:43:28;2.20;;;1.20;;
1004;SDS011;491;53.480;10.174;2023-07-16T14:45:54;4.37;;;1.67;;
1004;SDS011;491;53.480;10.174;2023-07-16T14:48:20;3.40;;;0.70;;
1004;SDS011;491;53.480;10.174;2023-07-16T14:50:48;7.33;;;2.53;;
1004;SDS011;491;53.480;10.174;2023-07-16T14:53:15;5.17;;;1.77;;
1004;SDS011;491;53.480;10.174;2023-07-16T14:55:45;5.17;;;2.37;;
1004;SDS011;491;53.480;10.174;2023-07-16T14:58:11;4.00;;;1.50;;
1004;SDS011;491;53.480;10.174;2023-07-16T15:00:40;3.57;;;1.80;;
1004;SDS011;491;53.480;10.174;2023-07-16T15:03:06;2.20;;;1.33;;
1004;SDS011;491;53.480;10.174;2023-07-16T15:05:32;2.63;;;1.13;;
1004;SDS011;491;53.480;10.174;2023-07-16T15:07:58;3.30;;;1.33;;
1004;SDS011;491;53.480;10.174;2023-07-16T15:10:24;2.63;;;1.00;;
1004;SDS011;491;53.480;10.174;2023-07-16T15:12:49;3.03;;;2.00;;
1004;SDS011;491;53.480;10.174;2023-07-16T15:15:15;6.30;;;1.50;;